createdAt,value
2022-12-01T00:00:08.220Z,20.60
2022-12-01T00:02:35.787Z,16.02
2022-12-01T00:05:03.107Z,21.08
2022-12-01T00:07:30.418Z,19.55
2022-12-01T00:10:16.401Z,21.48
2022-12-01T00:12:43.630Z,18.48
2022-12-01T00:15:11.495Z,19.35
2022-12-01T00:17:39.708Z,21.58
2022-12-01T00:20:07.764Z,21.98
2022-12-01T00:22:34.977Z,19.15
2022-12-01T00:25:02.189Z,20.33
2022-12-01T00:27:29.785Z,19.20
2022-12-01T00:29:57.034Z,17.60
2022-12-01T00:32:24.209Z,18.73
2022-12-01T00:34:51.478Z,19.20
2022-12-01T00:37:18.640Z,16.95
2022-12-01T00:39:46.765Z,18.48
2022-12-01T00:42:14.155Z,19.10
2022-12-01T00:44:41.400Z,19.08
2022-12-01T00:47:08.658Z,19.92
2022-12-01T00:49:35.835Z,20.58
2022-12-01T00:52:03.124Z,19.75
2022-12-01T00:54:32.232Z,19.63
2022-12-01T00:56:59.878Z,19.73
2022-12-01T00:59:27.118Z,18.55
2022-12-01T01:01:54.461Z,18.63
2022-12-01T01:04:21.843Z,19.73
2022-12-01T01:06:49.111Z,18.13
2022-12-01T01:09:16.607Z,14.07
2022-12-01T01:11:43.859Z,17.02
2022-12-01T01:14:11.138Z,18.08
2022-12-01T01:16:38.451Z,16.30
2022-12-01T01:19:05.764Z,18.63
2022-12-01T01:21:33.068Z,17.42
2022-12-01T01:24:00.265Z,17.10
2022-12-01T01:26:28.914Z,16.98
2022-12-01T01:29:00.577Z,17.63
2022-12-01T01:31:28.582Z,17.17
2022-12-01T01:33:56.633Z,16.85
2022-12-01T01:36:24.062Z,16.30
2022-12-01T01:38:51.727Z,16.77
2022-12-01T01:41:19.679Z,16.08
2022-12-01T01:43:50.844Z,16.55
2022-12-01T01:46:19.251Z,14.93
2022-12-01T01:48:49.048Z,16.05
2022-12-01T01:51:23.175Z,13.75
2022-12-01T01:53:55.564Z,14.82
2022-12-01T01:56:23.829Z,13.57
2022-12-01T01:58:51.325Z,13.52
2022-12-01T02:01:18.622Z,13.25
2022-12-01T02:03:46.368Z,13.90
2022-12-01T02:06:13.982Z,14.25
2022-12-01T02:08:41.153Z,13.85
2022-12-01T02:11:08.324Z,14.68
2022-12-01T02:13:54.473Z,12.88
2022-12-01T02:16:21.671Z,12.88
2022-12-01T02:18:48.872Z,13.10
2022-12-01T02:21:34.748Z,11.82
2022-12-01T02:24:02.087Z,12.68
2022-12-01T02:26:29.280Z,12.02
2022-12-01T02:29:25.993Z,12.30
2022-12-01T02:32:11.790Z,12.02
2022-12-01T02:35:11.362Z,11.02
2022-12-01T02:37:44.212Z,11.88
2022-12-01T02:40:11.595Z,12.15
2022-12-01T02:42:54.404Z,10.32
2022-12-01T02:45:26.550Z,10.65
2022-12-01T02:47:54.969Z,10.20
2022-12-01T02:50:24.061Z,11.43
2022-12-01T02:52:51.382Z,11.38
2022-12-01T02:55:18.725Z,11.50
2022-12-01T02:57:45.927Z,11.63
2022-12-01T03:00:13.963Z,11.48
2022-12-01T03:02:51.891Z,14.00
2022-12-01T03:05:26.970Z,11.55
2022-12-01T03:07:57.574Z,11.20
2022-12-01T03:10:25.164Z,11.35
2022-12-01T03:13:10.952Z,11.07
2022-12-01T03:15:56.837Z,11.82
2022-12-01T03:18:30.368Z,11.35
2022-12-01T03:21:02.828Z,10.57
2022-12-01T03:23:32.055Z,11.32
2022-12-01T03:26:01.385Z,10.32
2022-12-01T03:28:33.517Z,9.73
2022-12-01T03:31:03.945Z,9.70
2022-12-01T03:33:36.436Z,10.68
2022-12-01T03:36:06.361Z,9.88
2022-12-01T03:38:36.285Z,9.63
2022-12-01T03:41:08.785Z,9.30
2022-12-01T03:43:39.240Z,9.63
2022-12-01T03:46:15.475Z,8.95
2022-12-01T03:48:43.010Z,9.18
2022-12-01T03:51:10.221Z,9.35
2022-12-01T03:53:56.223Z,9.32
2022-12-01T03:56:25.553Z,10.30
2022-12-01T03:58:56.481Z,7.82
2022-12-01T04:01:23.803Z,7.75
2022-12-01T04:03:51.067Z,8.98
2022-12-01T04:06:18.290Z,9.60
2022-12-01T04:08:45.504Z,8.77
2022-12-01T04:11:45.321Z,8.00
2022-12-01T04:14:12.519Z,8.60
2022-12-01T04:16:42.139Z,7.55
2022-12-01T04:19:09.386Z,7.63
2022-12-01T04:21:36.607Z,7.85
2022-12-01T04:24:04.418Z,7.80
2022-12-01T04:26:33.369Z,7.82
2022-12-01T04:29:01.150Z,7.07
2022-12-01T04:31:28.742Z,7.05
2022-12-01T04:33:56.686Z,6.57
2022-12-01T04:36:24.853Z,7.30
2022-12-01T04:38:52.198Z,7.07
2022-12-01T04:41:19.663Z,6.93
2022-12-01T04:43:46.856Z,7.05
2022-12-01T04:46:14.879Z,7.15
2022-12-01T04:48:43.281Z,7.32
2022-12-01T04:51:10.511Z,6.13
2022-12-01T04:53:37.825Z,5.75
2022-12-01T04:56:05.148Z,6.57
2022-12-01T04:58:33.162Z,5.93
2022-12-01T05:01:08.715Z,6.60
2022-12-01T05:03:39.806Z,6.15
2022-12-01T05:06:08.350Z,6.43
2022-12-01T05:08:35.559Z,6.60
2022-12-01T05:11:03.005Z,5.70
2022-12-01T05:13:42.046Z,7.72
2022-12-01T05:16:10.521Z,5.50
2022-12-01T05:18:38.127Z,5.35
2022-12-01T05:21:06.785Z,5.13
2022-12-01T05:23:40.102Z,4.68
2022-12-01T05:26:10.839Z,4.97
2022-12-01T05:28:38.708Z,5.00
2022-12-01T05:31:06.082Z,4.15
2022-12-01T05:33:35.828Z,4.20
2022-12-01T05:36:03.079Z,3.92
2022-12-01T05:38:30.256Z,3.95
2022-12-01T05:40:57.462Z,3.33
2022-12-01T05:43:28.979Z,4.20
2022-12-01T05:45:59.315Z,3.63
2022-12-01T05:48:33.751Z,4.22
2022-12-01T05:51:05.931Z,3.30
2022-12-01T05:53:33.156Z,3.20
2022-12-01T05:56:00.436Z,3.50
2022-12-01T05:58:27.630Z,2.65
2022-12-01T06:00:54.824Z,3.47
2022-12-01T06:03:22.052Z,3.30
2022-12-01T06:05:51.727Z,2.30
2022-12-01T06:08:19.278Z,2.92
2022-12-01T06:10:46.787Z,2.53
2022-12-01T06:13:14.070Z,2.53
2022-12-01T06:15:41.354Z,2.10
2022-12-01T06:18:08.528Z,2.20
2022-12-01T06:20:35.780Z,2.42
2022-12-01T06:23:06.049Z,2.20
2022-12-01T06:25:33.542Z,3.85
2022-12-01T06:28:00.819Z,2.22
2022-12-01T06:30:28.166Z,2.33
2022-12-01T06:32:55.438Z,2.50
2022-12-01T06:35:22.673Z,2.15
2022-12-01T06:37:49.926Z,2.00
2022-12-01T06:40:17.176Z,2.60
2022-12-01T06:42:44.404Z,2.30
2022-12-01T06:45:11.915Z,2.05
2022-12-01T06:47:39.200Z,2.55
2022-12-01T06:50:08.630Z,2.28
2022-12-01T06:52:36.519Z,2.45
2022-12-01T06:55:09.200Z,1.88
2022-12-01T06:57:36.606Z,2.50
2022-12-01T07:00:08.826Z,2.28
2022-12-01T07:02:36.580Z,2.10
2022-12-01T07:05:03.862Z,1.92
2022-12-01T07:07:31.154Z,2.17
2022-12-01T07:09:58.455Z,2.08
2022-12-01T07:12:25.640Z,1.75
2022-12-01T07:14:52.893Z,2.00
2022-12-01T07:17:20.175Z,1.90
2022-12-01T07:19:47.664Z,2.00
2022-12-01T07:22:17.407Z,2.58
2022-12-01T07:24:44.596Z,1.65
2022-12-01T07:27:11.942Z,2.08
2022-12-01T07:29:39.176Z,1.88
2022-12-01T07:32:06.415Z,2.28
2022-12-01T07:34:33.600Z,2.00
2022-12-01T07:37:00.784Z,1.95
2022-12-01T07:39:27.950Z,2.38
2022-12-01T07:41:57.449Z,2.00
2022-12-01T07:44:24.677Z,2.03
2022-12-01T07:46:51.966Z,2.17
2022-12-01T07:49:19.211Z,2.33
2022-12-01T07:51:46.452Z,2.53
2022-12-01T07:54:17.667Z,2.28
2022-12-01T07:56:47.090Z,2.33
2022-12-01T07:59:14.286Z,2.30
2022-12-01T08:01:44.508Z,2.47
2022-12-01T08:04:12.165Z,1.83
2022-12-01T08:06:41.791Z,1.80
2022-12-01T08:09:13.707Z,2.10
2022-12-01T08:11:41.223Z,2.17
2022-12-01T08:14:08.477Z,2.45
2022-12-01T08:16:35.705Z,2.55
2022-12-01T08:19:02.965Z,21.55
2022-12-01T08:21:30.360Z,3.90
2022-12-01T08:23:58.102Z,2.80
2022-12-01T08:26:26.333Z,2.08
2022-12-01T08:28:53.647Z,2.80
2022-12-01T08:31:22.856Z,2.38
2022-12-01T08:33:52.473Z,2.08
2022-12-01T08:36:20.602Z,2.78
2022-12-01T08:38:49.365Z,2.35
2022-12-01T08:41:21.046Z,1.92
2022-12-01T08:44:03.486Z,2.53
2022-12-01T08:46:37.318Z,2.10
2022-12-01T08:49:05.713Z,2.50
2022-12-01T08:51:33.489Z,2.53
2022-12-01T08:54:01.691Z,2.47
2022-12-01T08:56:36.530Z,2.47
2022-12-01T08:59:04.070Z,2.35
2022-12-01T09:01:31.354Z,2.28
2022-12-01T09:04:06.009Z,2.80
2022-12-01T09:06:43.768Z,10.43
2022-12-01T09:09:12.033Z,3.03
2022-12-01T09:11:39.495Z,2.85
2022-12-01T09:14:06.841Z,2.83
2022-12-01T09:16:34.289Z,2.63
2022-12-01T09:19:01.903Z,3.10
2022-12-01T09:21:31.037Z,2.78
2022-12-01T09:23:58.552Z,3.83
2022-12-01T09:26:27.383Z,3.50
2022-12-01T09:28:55.791Z,2.88
2022-12-01T09:31:24.762Z,2.85
2022-12-01T09:33:56.470Z,3.00
2022-12-01T09:36:27.812Z,2.30
2022-12-01T09:38:55.008Z,2.60
2022-12-01T09:41:27.486Z,2.28
2022-12-01T09:44:10.652Z,2.55
2022-12-01T09:46:41.581Z,2.58
2022-12-01T09:49:16.703Z,2.42
2022-12-01T09:51:46.267Z,2.00
2022-12-01T09:54:16.602Z,2.08
2022-12-01T09:56:53.341Z,2.58
2022-12-01T09:59:23.578Z,2.78
2022-12-01T10:01:54.516Z,2.20
2022-12-01T10:04:26.055Z,2.00
2022-12-01T10:06:56.238Z,2.75
2022-12-01T10:09:28.991Z,2.15
2022-12-01T10:11:58.913Z,2.00
2022-12-01T10:14:29.602Z,2.03
2022-12-01T10:17:03.892Z,2.35
2022-12-01T10:19:49.540Z,2.60
2022-12-01T10:22:20.174Z,2.70
2022-12-01T10:24:49.759Z,2.22
2022-12-01T10:27:21.822Z,2.85
2022-12-01T10:29:52.738Z,2.38
2022-12-01T10:32:21.681Z,2.50
2022-12-01T10:34:49.184Z,2.50
2022-12-01T10:37:22.156Z,3.67
2022-12-01T10:39:52.044Z,3.05
2022-12-01T10:42:19.724Z,2.60
2022-12-01T10:44:49.085Z,2.47
2022-12-01T10:47:21.409Z,2.72
2022-12-01T10:49:49.356Z,3.05
2022-12-01T10:52:35.336Z,2.97
2022-12-01T10:55:03.402Z,2.42
2022-12-01T10:57:31.403Z,2.35
2022-12-01T11:00:01.135Z,2.58
2022-12-01T11:02:29.723Z,3.00
2022-12-01T11:05:02.502Z,2.90
2022-12-01T11:07:32.916Z,3.20
2022-12-01T11:10:07.763Z,2.70
2022-12-01T11:12:35.204Z,2.80
2022-12-01T11:15:22.490Z,2.95
2022-12-01T11:17:57.315Z,2.25
2022-12-01T11:20:41.811Z,2.30
2022-12-01T11:23:21.102Z,2.70
2022-12-01T11:26:08.736Z,2.75
2022-12-01T11:28:36.820Z,2.80
2022-12-01T11:31:14.224Z,3.25
2022-12-01T11:33:50.876Z,3.10
2022-12-01T11:36:32.056Z,3.08
2022-12-01T11:39:02.270Z,2.08
2022-12-01T11:41:32.537Z,2.58
2022-12-01T11:44:03.919Z,2.58
2022-12-01T11:46:33.578Z,2.70
2022-12-01T11:49:01.235Z,2.78
2022-12-01T11:51:31.937Z,3.13
2022-12-01T11:54:07.891Z,2.70
2022-12-01T11:56:35.132Z,3.65
2022-12-01T11:59:03.972Z,3.45
2022-12-01T12:01:43.378Z,4.07
2022-12-01T12:04:10.671Z,3.88
2022-12-01T12:06:55.981Z,3.78
2022-12-01T12:09:23.252Z,2.78
2022-12-01T12:12:03.637Z,3.88
2022-12-01T12:14:30.888Z,3.45
2022-12-01T12:17:07.077Z,3.60
2022-12-01T12:19:45.688Z,2.65
2022-12-01T12:22:24.404Z,2.60
2022-12-01T12:24:54.425Z,3.10
2022-12-01T12:27:40.519Z,3.17
2022-12-01T12:30:20.192Z,2.45
2022-12-01T12:32:56.440Z,3.80
2022-12-01T12:35:42.606Z,3.67
2022-12-01T12:38:12.816Z,3.92
2022-12-01T12:40:58.967Z,3.63
2022-12-01T12:43:35.671Z,3.05
2022-12-01T12:46:06.004Z,3.15
2022-12-01T12:48:35.985Z,3.50
2022-12-01T12:51:08.698Z,3.72
2022-12-01T12:53:40.033Z,3.75
2022-12-01T12:56:10.652Z,3.35
2022-12-01T12:58:56.934Z,3.85
2022-12-01T13:01:27.089Z,4.25
2022-12-01T13:03:57.471Z,4.90
2022-12-01T13:06:27.880Z,4.63
2022-12-01T13:09:08.836Z,3.97
2022-12-01T13:11:58.192Z,4.80
2022-12-01T13:14:28.744Z,5.10
2022-12-01T13:17:00.931Z,5.72
2022-12-01T13:19:30.339Z,6.40
2022-12-01T13:21:58.383Z,6.03
2022-12-01T13:24:28.284Z,6.88
2022-12-01T13:26:58.289Z,5.60
2022-12-01T13:29:26.680Z,5.88
2022-12-01T13:31:55.174Z,5.88
2022-12-01T13:34:28.331Z,5.75
2022-12-01T13:36:56.673Z,5.45
2022-12-01T13:39:35.594Z,6.13
2022-12-01T13:42:17.718Z,6.22
2022-12-01T13:44:46.735Z,6.20
2022-12-01T13:47:13.989Z,41.17
2022-12-01T13:49:44.435Z,7.93
2022-12-01T13:52:26.021Z,6.07
2022-12-01T13:55:08.564Z,5.25
2022-12-01T13:57:35.810Z,4.95
2022-12-01T14:00:06.875Z,5.38
2022-12-01T14:02:35.179Z,5.40
2022-12-01T14:05:21.353Z,4.80
2022-12-01T14:07:49.905Z,6.40
2022-12-01T14:10:33.099Z,5.78
2022-12-01T14:13:02.944Z,6.28
2022-12-01T14:15:30.215Z,5.60
2022-12-01T14:18:20.760Z,5.93
2022-12-01T14:20:49.237Z,5.88
2022-12-01T14:23:36.336Z,4.80
2022-12-01T14:26:12.701Z,5.68
2022-12-01T14:28:58.696Z,5.25
2022-12-01T14:31:49.934Z,6.35
2022-12-01T14:34:19.239Z,6.22
2022-12-01T14:36:59.132Z,5.93
2022-12-01T14:39:32.548Z,5.97
2022-12-01T14:42:01.987Z,6.63
2022-12-01T14:44:41.577Z,7.00
2022-12-01T14:47:17.096Z,6.75
2022-12-01T14:49:44.333Z,6.55
2022-12-01T14:52:18.489Z,6.18
2022-12-01T14:54:47.475Z,6.97
2022-12-01T14:57:17.408Z,6.72
2022-12-01T14:59:45.379Z,6.63
2022-12-01T15:02:12.950Z,7.70
2022-12-01T15:04:58.989Z,8.32
2022-12-01T15:07:26.331Z,10.35
2022-12-01T15:10:02.004Z,8.13
2022-12-01T15:12:30.367Z,9.18
2022-12-01T15:14:57.856Z,8.43
2022-12-01T15:17:33.058Z,5.30
2022-12-01T15:20:00.351Z,6.63
2022-12-01T15:22:30.273Z,6.55
2022-12-01T15:25:14.489Z,5.80
2022-12-01T15:27:43.971Z,5.05
2022-12-01T15:30:14.009Z,4.45
2022-12-01T15:32:46.042Z,5.05
2022-12-01T15:35:23.688Z,4.40
2022-12-01T15:37:52.609Z,4.28
2022-12-01T15:43:20.462Z,6.05
2022-12-01T15:45:55.209Z,5.35
2022-12-01T15:48:27.661Z,4.35
2022-12-01T15:51:03.091Z,5.03
2022-12-01T15:53:34.105Z,4.95
2022-12-01T15:56:03.486Z,5.30
2022-12-01T15:58:31.786Z,6.93
2022-12-01T16:00:59.421Z,6.95
2022-12-01T16:03:26.940Z,5.38
2022-12-01T16:05:54.624Z,5.75
2022-12-01T16:08:23.908Z,5.75
2022-12-01T16:11:10.867Z,6.30
2022-12-01T16:13:41.196Z,11.43
2022-12-01T16:16:29.552Z,8.38
2022-12-01T16:18:59.476Z,8.02
2022-12-01T16:21:29.570Z,8.27
2022-12-01T16:24:01.151Z,7.00
2022-12-01T16:26:29.045Z,8.18
2022-12-01T16:28:56.780Z,7.43
2022-12-01T16:31:26.175Z,6.68
2022-12-01T16:34:13.835Z,7.28
2022-12-01T16:36:50.958Z,9.68
2022-12-01T16:39:18.237Z,11.82
2022-12-01T16:41:46.870Z,9.27
2022-12-01T16:44:32.649Z,10.18
2022-12-01T16:46:59.909Z,10.45
2022-12-01T16:49:27.212Z,9.48
2022-12-01T16:51:56.530Z,10.23
2022-12-01T16:54:25.536Z,10.45
2022-12-01T16:56:52.833Z,15.52
2022-12-01T16:59:20.415Z,17.77
2022-12-01T17:01:47.782Z,16.15
2022-12-01T17:04:15.266Z,17.88
2022-12-01T17:06:42.600Z,11.80
2022-12-01T17:09:09.891Z,11.85
2022-12-01T17:11:37.207Z,12.75
2022-12-01T17:14:04.461Z,11.55
2022-12-01T17:16:31.765Z,12.07
2022-12-01T17:19:00.828Z,11.30
2022-12-01T17:21:28.450Z,14.48
2022-12-01T17:23:56.033Z,13.65
2022-12-01T17:26:23.792Z,13.60
2022-12-01T17:28:51.106Z,13.77
2022-12-01T17:31:18.407Z,13.13
2022-12-01T17:33:46.474Z,13.57
2022-12-01T17:36:14.464Z,13.70
2022-12-01T17:38:44.848Z,13.75
2022-12-01T17:41:13.954Z,12.50
2022-12-01T17:43:41.310Z,13.77
2022-12-01T17:46:09.837Z,12.73
2022-12-01T17:48:41.142Z,23.95
2022-12-01T17:51:09.110Z,20.95
2022-12-01T17:53:37.026Z,18.35
2022-12-01T17:56:06.895Z,17.13
2022-12-01T17:58:34.383Z,20.05
2022-12-01T18:01:01.798Z,29.98
2022-12-01T18:03:29.191Z,34.03
2022-12-01T18:05:57.670Z,17.17
2022-12-01T18:08:28.857Z,12.57
2022-12-01T18:11:00.819Z,12.80
2022-12-01T18:13:28.227Z,13.23
2022-12-01T18:15:55.559Z,11.88
2022-12-01T18:18:25.479Z,12.50
2022-12-01T18:20:52.700Z,13.20
2022-12-01T18:23:20.563Z,12.70
2022-12-01T18:25:47.878Z,12.15
2022-12-01T18:28:15.249Z,12.00
2022-12-01T18:30:42.464Z,12.32
2022-12-01T18:33:12.289Z,11.40
2022-12-01T18:35:45.493Z,11.70
2022-12-01T18:38:12.903Z,12.90
2022-12-01T18:40:40.159Z,12.68
2022-12-01T18:43:07.501Z,13.63
2022-12-01T18:45:34.757Z,14.07
2022-12-01T18:48:02.044Z,13.65
2022-12-01T18:50:29.816Z,13.55
2022-12-01T18:52:57.282Z,15.10
2022-12-01T18:55:24.632Z,14.82
2022-12-01T18:57:51.922Z,14.88
2022-12-01T19:00:19.320Z,14.80
2022-12-01T19:02:46.616Z,15.00
2022-12-01T19:05:13.885Z,13.60
2022-12-01T19:07:41.180Z,16.42
2022-12-01T19:10:08.980Z,13.60
2022-12-01T19:12:40.798Z,13.10
2022-12-01T19:15:08.965Z,15.43
2022-12-01T19:17:36.297Z,14.98
2022-12-01T19:20:04.783Z,15.70
2022-12-01T19:22:32.638Z,15.05
2022-12-01T19:25:02.293Z,14.93
2022-12-01T19:27:30.451Z,14.98
2022-12-01T19:29:57.715Z,15.57
2022-12-01T19:32:25.089Z,14.13
2022-12-01T19:34:52.662Z,12.70
2022-12-01T19:37:20.027Z,13.55
2022-12-01T19:39:47.233Z,13.82
2022-12-01T19:42:14.553Z,13.10
2022-12-01T19:44:41.825Z,12.60
2022-12-01T19:47:10.090Z,12.93
2022-12-01T19:49:38.030Z,12.88
2022-12-01T19:52:08.526Z,12.85
2022-12-01T19:54:37.683Z,11.32
2022-12-01T19:57:04.961Z,12.02
2022-12-01T19:59:32.300Z,11.48
2022-12-01T20:01:59.639Z,11.65
2022-12-01T20:04:29.102Z,12.43
2022-12-01T20:06:56.348Z,13.18
2022-12-01T20:09:23.627Z,12.10
2022-12-01T20:11:51.044Z,13.32
2022-12-01T20:14:18.413Z,13.77
2022-12-01T20:16:45.738Z,13.40
2022-12-01T20:19:13.177Z,12.98
2022-12-01T20:21:43.078Z,16.20
2022-12-01T20:24:14.734Z,15.75
2022-12-01T20:26:43.581Z,13.23
2022-12-01T20:29:21.958Z,12.20
2022-12-01T20:31:50.286Z,12.57
2022-12-01T20:34:22.075Z,12.95
2022-12-01T20:36:49.779Z,11.75
2022-12-01T20:39:17.088Z,11.05
2022-12-01T20:41:44.863Z,11.48
2022-12-01T20:44:12.703Z,13.30
2022-12-01T20:46:45.300Z,11.50
2022-12-01T20:49:13.079Z,11.85
2022-12-01T20:51:40.358Z,12.07
2022-12-01T20:56:56.072Z,11.93
2022-12-01T20:59:23.476Z,11.73
2022-12-01T21:01:50.840Z,11.07
2022-12-01T21:04:18.582Z,12.20
2022-12-01T21:06:46.221Z,11.35
2022-12-01T21:09:14.984Z,11.00
2022-12-01T21:12:10.888Z,11.05
2022-12-01T21:14:40.086Z,12.32
2022-12-01T21:17:19.430Z,12.88
2022-12-01T21:20:21.929Z,12.70
2022-12-01T21:22:53.662Z,12.45
2022-12-01T21:25:24.553Z,12.50
2022-12-01T21:27:52.428Z,13.52
2022-12-01T21:30:26.096Z,11.82
2022-12-01T21:32:54.191Z,12.52
2022-12-01T21:35:23.560Z,13.35
2022-12-01T21:37:51.826Z,13.32
2022-12-01T21:40:23.734Z,12.68
2022-12-01T21:42:51.757Z,12.90
2022-12-01T21:45:29.301Z,12.27
2022-12-01T21:48:01.617Z,13.00
2022-12-01T21:50:28.927Z,11.88
2022-12-01T21:52:56.258Z,12.73
2022-12-01T21:55:23.547Z,12.55
2022-12-01T21:57:54.130Z,12.93
2022-12-01T22:00:27.224Z,12.30
2022-12-01T22:03:09.885Z,13.43
2022-12-01T22:06:07.075Z,13.75
2022-12-01T22:08:39.096Z,12.52
2022-12-01T22:11:12.115Z,12.85
2022-12-01T22:13:40.015Z,12.10
2022-12-01T22:16:15.759Z,13.82
2022-12-01T22:18:45.942Z,12.43
2022-12-01T22:21:31.816Z,12.32
2022-12-01T22:24:11.188Z,12.00
2022-12-01T22:26:40.433Z,13.75
2022-12-01T22:29:30.581Z,13.82
2022-12-01T22:32:18.317Z,13.77
2022-12-01T22:34:50.205Z,13.82
2022-12-01T22:37:20.637Z,14.43
2022-12-01T22:39:49.643Z,13.45
2022-12-01T22:42:21.342Z,13.10
2022-12-01T22:44:48.848Z,13.13
2022-12-01T22:47:16.404Z,15.18
2022-12-01T22:49:43.798Z,15.18
2022-12-01T22:52:18.147Z,15.30
2022-12-01T22:54:50.067Z,14.32
2022-12-01T22:57:17.416Z,13.75
2022-12-01T22:59:46.528Z,16.02
2022-12-01T23:02:18.003Z,15.90
2022-12-01T23:04:48.312Z,15.90
2022-12-01T23:07:15.705Z,15.75
2022-12-01T23:09:44.463Z,16.10
2022-12-01T23:12:11.704Z,15.70
2022-12-01T23:14:49.673Z,16.42
2022-12-01T23:17:27.762Z,17.10
2022-12-01T23:20:21.688Z,14.45
2022-12-01T23:22:49.535Z,15.85
2022-12-01T23:25:18.315Z,17.08
2022-12-01T23:27:47.219Z,15.75
2022-12-01T23:30:14.912Z,16.23
2022-12-01T23:32:42.323Z,16.73
2022-12-01T23:35:16.852Z,16.92
2022-12-01T23:37:44.957Z,18.08
2022-12-01T23:40:23.555Z,18.25
2022-12-01T23:42:51.514Z,17.25
2022-12-01T23:45:23.412Z,18.55
2022-12-01T23:47:50.898Z,18.67
2022-12-01T23:50:23.061Z,17.00
2022-12-01T23:52:50.323Z,17.35
2022-12-01T23:55:22.799Z,16.90
2022-12-01T23:57:50.772Z,18.73
